Time;durP1;ratioP1;P1;durP2;ratioP2;P2;SDS_P1;SDS_P2;PMS_P1;PMS_P2;Temp;Humidity;BMP_temperature;BMP_pressure;BME280_temperature;BME280_humidity;BME280_pressure;Samples;Min_cycle;Max_cycle;Signal;HPM_P1;HPM_P2
2022/03/16 00:00:30;;;;;;;23.83;17.50;;;9.70;99.90;;;;;;4955862;28;20047;-75
2022/03/16 00:02:57;;;;;;;23.88;20.30;;;9.70;99.90;;;;;;4954956;28;20055;-74
2022/03/16 00:05:26;;;;;;;23.05;19.50;;;9.70;99.90;;;;;;4937979;29;20135;-74
2022/03/16 00:07:54;;;;;;;28.67;17.87;;;9.70;99.90;;;;;;4953761;29;20491;-75
2022/03/16 00:10:21;;;;;;;23.48;20.70;;;9.60;99.90;;;;;;4953780;29;20102;-75
2022/03/16 00:12:48;;;;;;;26.27;20.48;;;9.60;99.90;;;;;;4955161;28;20047;-74
2022/03/16 00:15:15;;;;;;;25.90;19.20;;;9.70;99.90;;;;;;4937726;29;20069;-75
2022/03/16 00:17:42;;;;;;;22.45;18.23;;;9.60;99.90;;;;;;4953236;29;20051;-75
2022/03/16 00:20:10;;;;;;;22.90;20.42;;;9.60;99.90;;;;;;4953853;29;20051;-75
2022/03/16 00:22:36;;;;;;;22.23;18.75;;;9.60;99.90;;;;;;4954673;28;20067;-75
2022/03/16 00:25:05;;;;;;;26.13;20.88;;;9.60;99.90;;;;;;4972658;28;20051;-74
2022/03/16 00:27:33;;;;;;;25.25;20.20;;;9.60;99.90;;;;;;4938023;29;20083;-75
2022/03/16 00:30:00;;;;;;;24.45;19.75;;;9.60;99.90;;;;;;4954757;29;20051;-74
2022/03/16 00:32:27;;;;;;;22.40;18.95;;;9.60;99.90;;;;;;4955021;28;20388;-74
2022/03/16 00:34:54;;;;;;;23.58;19.58;;;9.50;99.90;;;;;;4953277;29;20047;-74
2022/03/16 00:37:21;;;;;;;24.52;19.52;;;9.50;99.90;;;;;;4953032;29;20054;-74
2022/03/16 00:39:48;;;;;;;24.42;20.38;;;9.50;99.90;;;;;;4937591;29;20051;-74
2022/03/16 00:42:15;;;;;;;26.60;21.65;;;9.50;99.90;;;;;;4954290;28;20445;-75
2022/03/16 00:44:41;;;;;;;26.52;21.15;;;9.50;99.90;;;;;;4954361;28;20411;-74
2022/03/16 00:47:09;;;;;;;24.88;19.40;;;9.40;99.90;;;;;;4954152;28;20073;-74
2022/03/16 00:49:36;;;;;;;26.60;21.40;;;9.50;99.90;;;;;;4953094;29;20066;-74
2022/03/16 00:52:03;;;;;;;24.40;19.33;;;9.40;99.90;;;;;;4936975;29;20051;-74
2022/03/16 00:54:30;;;;;;;25.48;20.63;;;9.40;99.90;;;;;;4936943;29;20126;-74
2022/03/16 00:56:58;;;;;;;26.38;21.50;;;9.40;99.90;;;;;;4920910;29;20059;-74
2022/03/16 00:59:27;;;;;;;24.17;20.23;;;9.40;99.90;;;;;;4953891;29;20499;-74
2022/03/16 01:01:54;;;;;;;23.10;20.05;;;9.40;99.90;;;;;;4954462;28;20102;-75
2022/03/16 01:04:21;;;;;;;25.40;19.45;;;9.40;99.90;;;;;;4953798;28;20126;-74
2022/03/16 01:06:49;;;;;;;25.38;21.20;;;9.30;99.90;;;;;;4953817;28;20051;-75
2022/03/16 01:09:16;;;;;;;24.08;20.77;;;9.30;99.90;;;;;;4952287;29;20066;-74
2022/03/16 01:11:43;;;;;;;25.05;20.63;;;9.30;99.90;;;;;;4952559;29;20059;-74
2022/03/16 01:14:11;;;;;;;24.35;20.63;;;9.30;99.90;;;;;;4952450;29;20059;-75
2022/03/16 01:16:39;;;;;;;22.63;18.45;;;9.20;99.90;;;;;;4955623;28;20495;-75
2022/03/16 01:19:06;;;;;;;22.63;19.73;;;9.20;99.90;;;;;;4941419;29;20074;-74
2022/03/16 01:21:33;;;;;;;25.35;19.90;;;9.10;99.90;;;;;;4960402;28;20138;-74
2022/03/16 01:24:00;;;;;;;25.77;20.90;;;9.10;99.90;;;;;;4969044;28;20058;-74
2022/03/16 01:26:27;;;;;;;26.05;21.58;;;9.10;99.90;;;;;;4966395;28;20443;-74
2022/03/16 01:28:54;;;;;;;23.10;20.55;;;9.10;99.90;;;;;;4957647;28;20059;-74
2022/03/16 01:31:21;;;;;;;25.33;20.83;;;9.10;99.90;;;;;;4955949;29;20058;-74
2022/03/16 01:33:48;;;;;;;25.27;20.67;;;9.10;99.90;;;;;;4940279;29;20051;-74
2022/03/16 01:36:15;;;;;;;25.60;21.45;;;9.20;99.90;;;;;;4956179;29;20055;-74
2022/03/16 01:38:42;;;;;;;30.70;23.77;;;9.20;99.90;;;;;;4956301;29;20380;-74
2022/03/16 01:41:11;;;;;;;25.55;22.08;;;9.20;99.90;;;;;;4956244;29;20062;-74
2022/03/16 01:43:38;;;;;;;27.80;23.23;;;9.20;99.90;;;;;;4957419;28;20055;-74
2022/03/16 01:46:05;;;;;;;27.63;22.25;;;9.30;99.90;;;;;;4956359;29;20047;-74
2022/03/16 01:48:32;;;;;;;30.95;23.60;;;9.30;99.90;;;;;;4956983;28;20063;-74
2022/03/16 01:50:59;;;;;;;28.30;22.02;;;9.40;99.90;;;;;;4940556;29;20055;-74
2022/03/16 01:53:26;;;;;;;27.00;22.33;;;9.40;99.90;;;;;;4939971;29;20127;-74
2022/03/16 01:55:53;;;;;;;29.33;22.73;;;9.40;99.90;;;;;;4955704;29;20055;-74
2022/03/16 01:58:20;;;;;;;27.23;22.98;;;9.50;99.90;;;;;;4940306;29;20047;-74
2022/03/16 02:00:47;;;;;;;26.48;22.52;;;9.50;99.90;;;;;;4940032;29;20058;-75
2022/03/16 02:03:17;;;;;;;26.88;23.02;;;9.60;99.90;;;;;;4955875;29;20051;-75
2022/03/16 02:05:45;;;;;;;25.65;21.80;;;9.60;99.90;;;;;;4940711;29;20059;-75
2022/03/16 02:08:12;;;;;;;25.90;22.15;;;9.60;99.90;;;;;;4940219;29;20063;-74
2022/03/16 02:10:40;;;;;;;29.08;21.55;;;9.60;99.90;;;;;;4940015;29;20077;-74
2022/03/16 02:13:10;;;;;;;25.95;20.55;;;9.60;99.90;;;;;;4955570;29;20058;-74
2022/03/16 02:15:37;;;;;;;23.27;20.80;;;9.60;99.90;;;;;;4955176;29;20352;-74
2022/03/16 02:18:05;;;;;;;22.95;20.33;;;9.60;99.90;;;;;;4955341;29;20491;-74
2022/03/16 02:20:32;;;;;;;22.02;19.65;;;9.60;99.90;;;;;;4939543;29;20065;-74
2022/03/16 02:23:03;;;;;;;22.55;19.65;;;9.60;99.90;;;;;;4961047;28;20054;-74
2022/03/16 02:25:30;;;;;;;22.88;18.60;;;9.60;99.90;;;;;;4971786;28;20047;-75
2022/03/16 02:27:59;;;;;;;20.98;18.55;;;9.60;99.90;;;;;;4939258;29;20051;-74
2022/03/16 02:30:29;;;;;;;22.95;19.38;;;9.60;99.90;;;;;;4956525;28;20059;-74
2022/03/16 02:32:56;;;;;;;21.75;18.40;;;9.60;99.90;;;;;;4954876;29;20039;-74
2022/03/16 02:35:23;;;;;;;21.83;19.48;;;9.60;99.90;;;;;;4939633;29;20491;-74
2022/03/16 02:37:50;;;;;;;21.75;17.67;;;9.60;99.90;;;;;;4935794;29;20483;-74
2022/03/16 02:40:19;;;;;;;25.65;20.17;;;9.60;99.90;;;;;;4937478;29;20059;-74
2022/03/16 02:42:46;;;;;;;23.23;18.15;;;9.60;99.90;;;;;;4951714;29;20055;-74
2022/03/16 02:45:13;;;;;;;21.92;18.25;;;9.60;99.90;;;;;;4951403;29;20052;-74
2022/03/16 02:47:40;;;;;;;20.00;17.45;;;9.60;99.90;;;;;;4951842;29;20047;-74
2022/03/16 02:50:08;;;;;;;20.13;17.98;;;9.60;99.90;;;;;;4951489;29;20542;-74
2022/03/16 02:52:34;;;;;;;19.85;16.20;;;9.60;99.90;;;;;;4938484;28;20141;-74
2022/03/16 02:55:02;;;;;;;19.70;17.48;;;9.60;99.90;;;;;;4974013;28;20055;-74
2022/03/16 02:57:29;;;;;;;21.52;18.40;;;9.60;99.90;;;;;;4955595;28;20047;-75
2022/03/16 02:59:56;;;;;;;18.63;16.63;;;9.60;99.90;;;;;;4956332;28;20065;-74
2022/03/16 03:02:22;;;;;;;18.15;15.98;;;9.60;99.90;;;;;;4938334;29;20054;-75
2022/03/16 03:04:50;;;;;;;20.98;16.33;;;9.60;99.90;;;;;;4955320;29;20044;-74
2022/03/16 03:07:17;;;;;;;21.67;16.52;;;9.60;99.90;;;;;;4955346;29;20051;-75
2022/03/16 03:09:44;;;;;;;16.77;15.07;;;9.70;99.90;;;;;;4955531;29;20047;-74
2022/03/16 03:12:11;;;;;;;21.40;15.68;;;9.60;99.90;;;;;;4954598;29;20055;-74
2022/03/16 03:14:38;;;;;;;19.23;15.93;;;9.60;99.90;;;;;;4954505;29;20412;-74
2022/03/16 03:17:05;;;;;;;21.05;17.83;;;9.60;99.90;;;;;;4954991;29;20043;-74
2022/03/16 03:19:33;;;;;;;17.83;15.18;;;9.60;99.90;;;;;;4954655;29;20052;-74
2022/03/16 03:21:59;;;;;;;21.17;15.50;;;9.60;99.90;;;;;;4954727;29;20513;-74
2022/03/16 03:24:26;;;;;;;18.85;16.13;;;9.60;99.90;;;;;;4954754;28;20360;-74
2022/03/16 03:26:54;;;;;;;18.00;15.43;;;9.60;99.90;;;;;;4954648;29;20118;-74
2022/03/16 03:29:21;;;;;;;17.25;15.32;;;9.60;99.90;;;;;;4955137;29;20051;-74
2022/03/16 03:31:47;;;;;;;17.50;15.18;;;9.60;99.90;;;;;;4954600;29;20067;-74
2022/03/16 03:34:14;;;;;;;18.13;15.38;;;9.50;99.90;;;;;;4954966;29;20055;-74
2022/03/16 03:36:42;;;;;;;16.13;14.43;;;9.60;99.90;;;;;;4938777;29;20058;-75
2022/03/16 03:39:09;;;;;;;17.40;15.15;;;9.60;99.90;;;;;;4954042;28;20065;-74
2022/03/16 03:41:37;;;;;;;19.95;17.00;;;9.60;99.90;;;;;;4954672;29;20059;-74
2022/03/16 03:44:04;;;;;;;19.63;16.02;;;9.60;99.90;;;;;;4923269;29;20055;-75
2022/03/16 03:46:31;;;;;;;17.65;15.57;;;9.60;99.90;;;;;;4954387;29;20180;-74
2022/03/16 03:48:58;;;;;;;18.05;15.55;;;9.60;99.90;;;;;;4954493;29;20047;-74
2022/03/16 03:51:25;;;;;;;18.58;16.63;;;9.60;99.90;;;;;;4954443;29;20054;-74
2022/03/16 03:53:52;;;;;;;19.55;16.33;;;9.60;99.90;;;;;;4954361;28;20411;-74
2022/03/16 03:56:21;;;;;;;17.90;14.57;;;9.70;99.90;;;;;;4953501;29;20055;-74
2022/03/16 03:58:48;;;;;;;19.20;17.15;;;9.70;99.90;;;;;;4923309;29;20376;-74
2022/03/16 04:01:17;;;;;;;20.25;15.90;;;9.70;99.90;;;;;;4954627;29;20051;-74
2022/03/16 04:03:44;;;;;;;18.52;16.63;;;9.70;99.90;;;;;;4958231;29;20067;-75
2022/03/16 04:06:11;;;;;;;20.67;16.58;;;9.70;99.90;;;;;;4938636;29;20047;-74
2022/03/16 04:08:38;;;;;;;19.23;16.10;;;9.80;99.90;;;;;;4954918;29;20058;-74
2022/03/16 04:11:05;;;;;;;18.35;16.35;;;9.70;99.90;;;;;;4955478;28;20055;-74
2022/03/16 04:13:32;;;;;;;18.80;16.40;;;9.70;99.90;;;;;;4954851;28;20051;-74
2022/03/16 04:15:59;;;;;;;19.90;17.20;;;9.70;99.90;;;;;;4937783;29;20081;-74
2022/03/16 04:18:27;;;;;;;20.00;17.52;;;9.70;99.90;;;;;;4953943;29;20087;-75
2022/03/16 04:20:54;;;;;;;20.27;16.33;;;9.60;99.90;;;;;;4955331;28;20075;-74
2022/03/16 04:23:21;;;;;;;19.92;17.45;;;9.60;99.90;;;;;;4954187;29;20047;-74
2022/03/16 04:25:48;;;;;;;19.38;17.27;;;9.70;99.90;;;;;;4938265;29;20047;-74
2022/03/16 04:28:15;;;;;;;21.20;17.33;;;9.70;99.90;;;;;;4953736;29;20059;-74
2022/03/16 04:30:42;;;;;;;19.30;17.30;;;9.70;99.90;;;;;;4938202;29;20066;-75
2022/03/16 04:33:09;;;;;;;19.70;16.77;;;9.70;99.90;;;;;;4954629;29;20552;-75
2022/03/16 04:35:38;;;;;;;21.23;17.35;;;9.70;99.90;;;;;;4953647;29;20053;-74
2022/03/16 04:38:05;;;;;;;22.30;16.20;;;9.70;99.90;;;;;;4953556;29;20047;-74
2022/03/16 04:40:35;;;;;;;19.50;17.40;;;9.70;99.90;;;;;;4954504;28;20052;-74
2022/03/16 04:43:02;;;;;;;30.23;17.20;;;9.70;99.90;;;;;;4952980;29;20494;-75
2022/03/16 04:45:28;;;;;;;20.42;17.85;;;9.70;99.90;;;;;;4953793;28;20122;-74
2022/03/16 04:47:55;;;;;;;21.98;17.52;;;9.70;99.90;;;;;;4937879;29;20062;-75
2022/03/16 04:50:26;;;;;;;19.10;15.93;;;9.70;99.90;;;;;;4937701;29;20053;-74
2022/03/16 04:52:53;;;;;;;19.58;17.48;;;9.70;99.90;;;;;;4957605;28;20047;-74
2022/03/16 04:55:19;;;;;;;20.52;17.65;;;9.80;99.90;;;;;;4972030;28;20151;-74
2022/03/16 04:57:47;;;;;;;18.75;15.90;;;9.70;99.90;;;;;;4952640;29;20051;-74
2022/03/16 05:00:15;;;;;;;20.60;18.38;;;9.70;99.90;;;;;;4953419;29;20051;-74
2022/03/16 05:02:42;;;;;;;20.27;17.15;;;9.70;99.90;;;;;;4953349;29;20134;-75
2022/03/16 05:05:10;;;;;;;19.40;17.15;;;9.70;99.90;;;;;;4952044;29;20051;-75
2022/03/16 05:07:38;;;;;;;19.45;16.77;;;9.70;99.90;;;;;;4954599;28;20139;-74
2022/03/16 05:10:06;;;;;;;21.40;17.67;;;9.70;99.90;;;;;;4937102;29;20051;-74
2022/03/16 05:12:39;;;;;;;18.70;15.98;;;9.70;99.90;;;;;;4937080;29;20087;-74
2022/03/16 05:15:07;;;;;;;19.50;17.27;;;9.70;99.90;;;;;;4952910;29;20059;-74
2022/03/16 05:17:35;;;;;;;21.27;18.83;;;9.70;99.90;;;;;;4953356;29;20519;-74
2022/03/16 05:20:02;;;;;;;20.67;18.48;;;9.70;99.90;;;;;;4954952;28;20069;-74
2022/03/16 05:22:29;;;;;;;20.02;17.92;;;9.70;99.90;;;;;;4954019;28;20057;-74
2022/03/16 05:24:56;;;;;;;20.55;17.67;;;9.80;99.90;;;;;;4972575;28;20050;-74
2022/03/16 05:27:23;;;;;;;23.58;19.27;;;9.80;99.90;;;;;;4955974;28;20040;-74
2022/03/16 05:29:50;;;;;;;20.73;17.77;;;9.80;99.90;;;;;;4953270;28;20085;-74
2022/03/16 05:32:17;;;;;;;20.17;17.17;;;9.80;99.90;;;;;;4937125;29;20066;-74
2022/03/16 05:34:44;;;;;;;21.90;18.15;;;9.80;99.90;;;;;;4953114;29;20062;-74
2022/03/16 05:37:11;;;;;;;20.33;17.92;;;9.80;99.90;;;;;;4954403;28;20047;-74
2022/03/16 05:39:38;;;;;;;21.05;17.00;;;9.80;99.90;;;;;;4954398;28;20052;-75
2022/03/16 05:42:05;;;;;;;20.35;18.15;;;9.80;99.90;;;;;;4952741;29;20066;-74
2022/03/16 05:44:32;;;;;;;21.05;17.65;;;9.80;99.90;;;;;;4953769;28;20055;-74
2022/03/16 05:47:00;;;;;;;22.70;18.52;;;9.80;99.90;;;;;;4953053;29;20055;-74
2022/03/16 05:49:28;;;;;;;20.15;17.45;;;9.80;99.90;;;;;;4952856;29;20483;-74
2022/03/16 05:51:58;;;;;;;21.75;18.05;;;9.80;99.90;;;;;;4954272;28;20051;-74
2022/03/16 05:54:28;;;;;;;21.90;18.02;;;9.80;99.90;;;;;;4937356;29;20051;-74
2022/03/16 05:56:56;;;;;;;22.23;19.40;;;9.70;99.90;;;;;;4953417;29;20047;-74
2022/03/16 05:59:25;;;;;;;21.23;18.90;;;9.70;99.90;;;;;;4954070;28;20058;-74
2022/03/16 06:01:52;;;;;;;21.48;18.58;;;9.70;99.90;;;;;;4953895;28;20051;-75
2022/03/16 06:04:19;;;;;;;21.13;18.63;;;9.70;99.90;;;;;;4956192;29;20403;-75
2022/03/16 06:06:46;;;;;;;24.65;19.23;;;9.70;99.90;;;;;;4956151;29;20051;-74
2022/03/16 06:09:13;;;;;;;22.52;19.98;;;9.70;99.90;;;;;;4957850;29;20047;-75
2022/03/16 06:11:41;;;;;;;19.48;16.88;;;9.70;99.90;;;;;;4956132;29;20051;-74
2022/03/16 06:14:09;;;;;;;;;;;9.70;99.90;;;;;;4957992;28;20048;-74
2022/03/16 06:16:36;;;;;;;23.17;19.67;;;9.80;99.90;;;;;;4955810;29;19922;-74
2022/03/16 06:19:03;;;;;;;24.55;19.63;;;9.70;99.90;;;;;;4955936;29;20380;-74
2022/03/16 06:21:30;;;;;;;22.15;19.30;;;9.70;99.90;;;;;;4956762;28;20058;-74
2022/03/16 06:23:58;;;;;;;22.05;19.23;;;9.80;99.90;;;;;;4951725;28;20050;-74
2022/03/16 06:26:25;;;;;;;22.08;18.70;;;9.80;99.90;;;;;;4949405;29;20206;-73
2022/03/16 06:28:52;;;;;;;23.55;19.77;;;9.80;99.90;;;;;;4956740;28;20134;-74
2022/03/16 06:31:19;;;;;;;22.80;19.15;;;9.80;99.90;;;;;;4957228;28;20082;-74
2022/03/16 06:33:46;;;;;;;23.10;20.35;;;9.80;99.90;;;;;;4955452;29;20102;-76
2022/03/16 06:36:15;;;;;;;24.08;19.98;;;9.80;99.90;;;;;;4956763;28;20054;-74
2022/03/16 06:38:42;;;;;;;23.63;19.42;;;9.70;99.90;;;;;;4920665;29;20044;-74
2022/03/16 06:41:20;;;;;;;25.75;21.25;;;9.70;99.90;;;;;;4951319;29;20143;-75
2022/03/16 06:43:48;;;;;;;;;;;9.70;99.90;;;;;;4954187;29;20056;-74
2022/03/16 06:46:16;;;;;;;24.08;20.40;;;9.70;99.90;;;;;;4954200;29;19922;-74
2022/03/16 06:48:43;;;;;;;24.90;21.63;;;9.70;99.90;;;;;;4937117;29;20048;-74
2022/03/16 06:51:10;;;;;;;23.48;20.80;;;9.70;99.90;;;;;;4936705;29;20070;-74
2022/03/16 06:53:37;;;;;;;29.30;20.20;;;9.80;99.90;;;;;;4964819;28;20070;-75
2022/03/16 06:56:04;;;;;;;23.85;21.15;;;9.70;99.90;;;;;;4967746;28;20072;-74
2022/03/16 06:58:31;;;;;;;25.90;20.85;;;9.70;99.90;;;;;;4939158;29;20050;-74
2022/03/16 07:00:58;;;;;;;25.88;21.50;;;9.70;99.90;;;;;;4956056;28;20118;-74
2022/03/16 07:03:25;;;;;;;26.05;21.35;;;9.80;99.90;;;;;;4954811;29;20491;-74
2022/03/16 07:05:53;;;;;;;25.10;21.05;;;9.80;99.90;;;;;;4956344;28;20043;-74
2022/03/16 07:08:20;;;;;;;23.70;19.77;;;9.80;99.90;;;;;;4956539;28;20288;-75
2022/03/16 07:10:49;;;;;;;25.10;20.85;;;9.80;99.90;;;;;;4955007;29;20142;-74
2022/03/16 07:13:16;;;;;;;24.38;20.77;;;9.90;99.90;;;;;;4955654;28;20074;-74
2022/03/16 07:15:44;;;;;;;24.40;18.98;;;9.90;99.90;;;;;;4955327;28;20061;-74
2022/03/16 07:18:13;;;;;;;22.50;19.70;;;9.90;99.90;;;;;;4938913;29;20055;-75
2022/03/16 07:20:41;;;;;;;24.95;21.25;;;9.90;99.90;;;;;;4954688;29;20412;-75
2022/03/16 07:23:12;;;;;;;23.50;20.25;;;9.90;99.90;;;;;;4959912;28;20450;-75
2022/03/16 07:25:40;;;;;;;25.23;20.30;;;9.90;99.90;;;;;;4970582;28;20475;-74
2022/03/16 07:28:07;;;;;;;23.73;19.85;;;10.00;99.90;;;;;;4938428;29;20044;-74
2022/03/16 07:30:35;;;;;;;23.20;20.25;;;10.00;99.90;;;;;;4938851;29;20070;-75
2022/03/16 07:33:02;;;;;;;24.20;20.48;;;10.00;99.90;;;;;;4955715;28;20050;-74
2022/03/16 07:35:29;;;;;;;22.88;20.38;;;10.00;99.90;;;;;;4955979;28;20047;-74
2022/03/16 07:37:56;;;;;;;23.48;19.02;;;10.00;99.90;;;;;;4954317;29;20051;-74
2022/03/16 07:40:23;;;;;;;22.48;20.05;;;10.00;99.90;;;;;;4953890;29;20050;-75
2022/03/16 07:42:51;;;;;;;22.83;19.58;;;10.10;99.90;;;;;;4954159;29;20055;-74
2022/03/16 07:45:18;;;;;;;21.83;19.25;;;10.10;99.90;;;;;;4954122;28;20047;-74
2022/03/16 07:47:50;;;;;;;22.95;20.42;;;10.20;99.90;;;;;;4933989;29;20062;-74
2022/03/16 07:50:17;;;;;;;25.73;19.02;;;10.30;99.90;;;;;;4948010;29;20527;-74
2022/03/16 07:52:44;;;;;;;21.00;17.95;;;10.20;99.90;;;;;;4940187;28;20066;-74
2022/03/16 07:55:11;;;;;;;25.02;19.33;;;10.30;99.90;;;;;;4973420;28;20509;-74
2022/03/16 07:57:41;;;;;;;22.20;18.63;;;10.30;99.90;;;;;;4938842;29;20110;-75
2022/03/16 08:00:10;;;;;;;21.95;19.05;;;10.30;99.90;;;;;;4954174;29;20494;-75
2022/03/16 08:02:37;;;;;;;;;;;10.40;99.90;;;;;;4956151;29;20051;-75
2022/03/16 08:05:05;;;;;;;23.10;19.65;;;10.40;99.90;;;;;;4953775;29;19926;-74
2022/03/16 08:07:33;;;;;;;23.52;18.65;;;10.40;99.90;;;;;;4954200;29;20047;-75
2022/03/16 08:10:00;;;;;;;22.95;20.17;;;10.40;99.90;;;;;;4953871;29;20047;-76
2022/03/16 08:12:27;;;;;;;21.65;19.02;;;10.40;99.90;;;;;;4953466;29;20058;-75
2022/03/16 08:14:55;;;;;;;22.90;19.35;;;10.40;99.90;;;;;;4954051;29;20122;-75
2022/03/16 08:17:22;;;;;;;21.92;18.42;;;10.40;99.90;;;;;;4953679;29;20078;-75
2022/03/16 08:19:49;;;;;;;21.40;18.83;;;10.40;99.90;;;;;;4954977;29;20051;-75
2022/03/16 08:22:33;;;;;;;21.60;18.25;;;10.50;99.90;;;;;;4937533;29;20047;-75
2022/03/16 08:25:06;;;;;;;23.30;17.65;;;10.50;99.90;;;;;;4956701;28;20070;-76
2022/03/16 08:27:34;;;;;;;23.77;17.85;;;10.50;99.90;;;;;;4954718;28;20078;-75
2022/03/16 08:30:01;;;;;;;21.70;19.10;;;10.50;99.90;;;;;;4953026;29;20055;-75
2022/03/16 08:32:28;;;;;;;20.23;18.10;;;10.50;99.90;;;;;;4937251;29;20047;-75
2022/03/16 08:34:55;;;;;;;21.23;18.92;;;10.50;99.90;;;;;;4952875;29;20105;-75
2022/03/16 08:37:22;;;;;;;21.98;19.27;;;10.50;99.90;;;;;;4953767;29;20054;-75
2022/03/16 08:39:49;;;;;;;22.20;17.90;;;10.50;99.90;;;;;;4953408;29;20051;-76
2022/03/16 08:42:17;;;;;;;21.25;18.13;;;10.50;99.90;;;;;;4936613;29;20475;-75
2022/03/16 08:44:45;;;;;;;23.73;18.65;;;10.50;99.90;;;;;;4954214;28;20055;-75
2022/03/16 08:47:16;;;;;;;22.50;18.70;;;10.50;99.90;;;;;;4937162;29;20047;-75
2022/03/16 08:49:45;;;;;;;20.38;17.17;;;10.50;99.90;;;;;;4937779;29;20154;-75
2022/03/16 08:52:12;;;;;;;19.67;17.63;;;10.50;99.90;;;;;;4921290;29;20511;-75
2022/03/16 08:54:40;;;;;;;22.90;18.83;;;10.50;99.90;;;;;;4936993;29;20055;-75
2022/03/16 08:57:09;;;;;;;21.98;17.27;;;10.50;99.90;;;;;;4952264;29;20551;-75
2022/03/16 08:59:37;;;;;;;22.98;18.85;;;10.50;99.90;;;;;;4952650;29;20051;-75
2022/03/16 09:02:05;;;;;;;22.60;17.48;;;10.60;99.90;;;;;;4952795;29;20051;-75
2022/03/16 09:04:34;;;;;;;18.30;16.35;;;10.60;99.90;;;;;;4953822;28;20055;-75
2022/03/16 09:07:03;;;;;;;20.85;17.33;;;10.60;99.90;;;;;;4953415;28;20051;-75
2022/03/16 09:09:37;;;;;;;22.20;18.33;;;10.70;99.90;;;;;;4951936;29;20487;-75
2022/03/16 09:12:04;;;;;;;22.33;18.33;;;10.60;99.90;;;;;;4984297;28;20055;-75
2022/03/16 09:14:33;;;;;;;22.98;19.67;;;10.70;99.90;;;;;;4953507;28;20398;-75
2022/03/16 09:17:01;;;;;;;30.08;23.42;;;10.70;99.90;;;;;;4984737;28;20058;-75
2022/03/16 09:19:28;;;;;;;22.75;19.08;;;10.70;99.90;;;;;;4984393;28;20058;-74
2022/03/16 09:21:55;;;;;;;23.58;19.92;;;10.80;99.90;;;;;;4984274;28;20047;-75
2022/03/16 09:24:25;;;;;;;21.98;19.63;;;10.70;99.90;;;;;;4968484;28;20051;-75
2022/03/16 09:26:59;;;;;;;22.38;19.13;;;10.80;99.90;;;;;;4959637;28;20046;-75
2022/03/16 09:29:29;;;;;;;24.85;18.88;;;10.80;99.90;;;;;;4938255;29;20086;-75
2022/03/16 09:32:04;;;;;;;24.77;18.90;;;10.90;99.90;;;;;;4953684;29;20078;-75
2022/03/16 09:34:31;;;;;;;22.03;17.53;;;10.90;99.90;;;;;;4953705;29;20514;-75
2022/03/16 09:36:59;;;;;;;22.10;17.48;;;10.90;99.90;;;;;;4953773;28;20372;-75
2022/03/16 09:39:27;;;;;;;22.75;17.75;;;11.00;99.90;;;;;;4937264;29;20059;-75
2022/03/16 09:41:55;;;;;;;20.60;18.02;;;10.90;99.90;;;;;;4952623;29;20055;-75
2022/03/16 09:44:23;;;;;;;25.13;18.03;;;11.00;99.90;;;;;;4952282;29;20058;-75
2022/03/16 09:46:52;;;;;;;21.60;17.98;;;11.00;99.90;;;;;;4952969;29;20365;-74
2022/03/16 09:49:18;;;;;;;23.40;16.85;;;11.00;99.90;;;;;;4937821;29;20642;-75
2022/03/16 09:51:45;;;;;;;19.65;16.60;;;11.00;99.90;;;;;;4936765;29;20501;-75
2022/03/16 09:54:12;;;;;;;22.50;18.00;;;11.00;99.90;;;;;;4969878;28;20057;-75
2022/03/16 09:56:39;;;;;;;20.15;17.35;;;10.90;99.90;;;;;;4964566;28;20095;-75
2022/03/16 09:59:06;;;;;;;21.00;17.38;;;10.90;99.90;;;;;;4956704;28;20051;-75
2022/03/16 10:01:35;;;;;;;20.80;17.75;;;10.90;99.90;;;;;;4957106;28;20110;-75
2022/03/16 10:04:06;;;;;;;25.13;17.70;;;11.00;99.90;;;;;;4956910;28;20051;-75
2022/03/16 10:06:37;;;;;;;18.05;16.13;;;11.00;99.90;;;;;;4957162;29;20285;-75
2022/03/16 10:15:16;;;;;;;20.17;18.05;;;11.00;99.90;;;;;;4956710;29;20089;-75
2022/03/16 10:18:05;;;;;;;20.47;16.80;;;11.10;99.90;;;;;;4956542;28;20451;-74
2022/03/16 10:20:36;;;;;;;21.15;17.25;;;11.10;99.90;;;;;;4956690;29;20088;-74
2022/03/16 10:23:07;;;;;;;21.75;16.48;;;11.10;99.90;;;;;;4943904;28;20059;-75
2022/03/16 10:25:36;;;;;;;22.50;18.00;;;11.10;99.90;;;;;;4972838;28;20055;-75
2022/03/16 10:28:10;;;;;;;27.80;17.00;;;11.10;99.90;;;;;;4939300;29;20055;-75
2022/03/16 10:31:02;;;;;;;19.23;16.83;;;11.10;99.90;;;;;;4956313;29;20051;-75
2022/03/16 10:33:55;;;;;;;22.23;18.33;;;11.10;99.90;;;;;;4955636;29;20134;-74
2022/03/16 10:36:25;;;;;;;21.05;17.27;;;11.00;99.90;;;;;;4955382;29;20059;-74
2022/03/16 10:38:54;;;;;;;22.80;17.80;;;11.00;99.90;;;;;;4939110;29;20518;-74
2022/03/16 10:47:14;;;;;;;26.48;19.77;;;11.10;99.90;;;;;;4942712;29;20067;-74
2022/03/16 10:49:45;;;;;;;35.08;19.65;;;11.10;99.90;;;;;;4938670;29;20058;-75
2022/03/16 10:52:18;;;;;;;24.08;18.88;;;11.10;99.90;;;;;;4955076;29;20507;-74
2022/03/16 10:54:47;;;;;;;21.95;18.20;;;11.20;99.90;;;;;;4955091;29;20047;-75
2022/03/16 10:57:15;;;;;;;21.88;18.77;;;11.20;99.90;;;;;;4955024;29;20086;-75
2022/03/16 10:59:43;;;;;;;20.92;18.10;;;11.30;99.90;;;;;;4938580;29;20143;-75
2022/03/16 11:02:15;;;;;;;22.75;18.13;;;11.30;99.90;;;;;;4953738;29;20050;-75
2022/03/16 11:04:44;;;;;;;24.27;18.20;;;11.40;99.90;;;;;;4939511;29;20404;-74
2022/03/16 11:07:11;;;;;;;22.70;19.10;;;11.40;99.90;;;;;;4954908;29;20059;-75
2022/03/16 11:09:39;;;;;;;24.27;18.67;;;11.40;99.90;;;;;;4954823;29;20399;-74
2022/03/16 11:14:56;;;;;;;23.10;18.90;;;11.50;99.90;;;;;;4955441;29;20476;-75
2022/03/16 11:17:23;;;;;;;20.70;18.15;;;11.40;99.90;;;;;;4954598;29;20062;-74
2022/03/16 11:19:52;;;;;;;28.13;19.90;;;11.40;99.90;;;;;;4938313;29;20738;-75
2022/03/16 11:22:33;;;;;;;18.48;16.52;;;11.50;99.90;;;;;;4954346;29;20103;-75
2022/03/16 11:25:11;;;;;;;23.85;17.40;;;11.60;99.90;;;;;;4935596;29;20052;-75
2022/03/16 11:28:00;;;;;;;20.80;18.55;;;11.70;99.90;;;;;;4919995;29;20407;-75
2022/03/16 11:30:29;;;;;;;20.27;17.35;;;11.90;99.90;;;;;;4932408;29;20055;-75
2022/03/16 11:33:05;;;;;;;20.23;17.45;;;11.90;99.90;;;;;;4934968;29;20047;-75
2022/03/16 11:35:37;;;;;;;19.42;16.08;;;12.00;99.90;;;;;;4919533;29;20061;-75
2022/03/16 11:38:09;;;;;;;20.60;17.80;;;12.00;99.90;;;;;;4937093;29;20053;-75
2022/03/16 11:40:40;;;;;;;21.73;17.52;;;12.00;99.90;;;;;;4954213;29;20059;-75
2022/03/16 11:43:11;;;;;;;19.23;17.10;;;12.10;99.90;;;;;;4955311;28;20110;-76
2022/03/16 11:45:43;;;;;;;24.70;17.30;;;12.10;99.90;;;;;;4955486;28;20159;-75
2022/03/16 11:48:41;;;;;;;18.95;15.77;;;12.00;99.90;;;;;;4954198;29;20059;-75
2022/03/16 11:51:14;;;;;;;22.52;17.10;;;12.00;99.90;;;;;;4944966;29;20406;-75
2022/03/16 11:53:47;;;;;;;19.85;17.25;;;12.00;99.90;;;;;;4954219;29;20093;-75
2022/03/16 11:56:41;;;;;;;19.90;17.73;;;12.00;99.90;;;;;;4955786;28;20058;-75
2022/03/16 11:59:17;;;;;;;19.70;15.85;;;12.10;99.90;;;;;;4948448;28;20055;-75
2022/03/16 12:02:01;;;;;;;20.05;17.50;;;12.00;99.90;;;;;;4955080;28;20054;-75
2022/03/16 12:04:41;;;;;;;20.27;17.30;;;11.90;99.90;;;;;;4954690;28;20467;-75
2022/03/16 12:07:12;;;;;;;;;;;12.00;99.90;;;;;;4938815;29;20111;-75
2022/03/16 12:09:45;;;;;;;18.63;15.73;;;12.00;99.90;;;;;;4953320;29;19950;-75
2022/03/16 12:15:15;;;;;;;17.95;16.20;;;12.20;99.90;;;;;;4953856;29;20051;-75
2022/03/16 12:18:02;;;;;;;20.63;17.85;;;12.20;99.90;;;;;;4955830;29;20410;-75
2022/03/16 12:20:44;;;;;;;24.67;17.08;;;12.30;99.90;;;;;;4955117;29;20051;-75
2022/03/16 12:23:18;;;;;;;21.58;16.80;;;12.30;99.90;;;;;;4938751;29;20048;-75
2022/03/16 12:25:49;;;;;;;23.10;18.80;;;12.20;99.90;;;;;;4939370;29;20102;-76
2022/03/16 12:31:12;;;;;;;22.30;17.02;;;12.20;99.90;;;;;;4954102;29;20051;-75
2022/03/16 12:33:41;;;;;;;23.25;17.05;;;12.20;99.90;;;;;;4938868;29;20063;-75
2022/03/16 12:36:11;;;;;;;20.83;17.45;;;12.20;99.90;;;;;;4922711;29;20059;-75
2022/03/16 12:38:49;;;;;;;22.35;17.30;;;12.10;99.90;;;;;;4953726;29;20059;-76
2022/03/16 12:44:10;;;;;;;21.13;18.20;;;12.10;99.90;;;;;;4967857;28;20078;-75
2022/03/16 12:46:49;;;;;;;20.95;18.75;;;12.10;99.90;;;;;;4954057;29;20058;-75
2022/03/16 12:49:18;;;;;;;20.30;17.83;;;12.10;99.90;;;;;;4953566;29;20047;-75
2022/03/16 12:51:46;;;;;;;21.33;19.00;;;12.10;99.90;;;;;;4953230;29;20057;-75
2022/03/16 12:54:20;;;;;;;21.98;17.38;;;12.00;99.90;;;;;;4952340;29;20514;-74
2022/03/16 12:56:50;;;;;;;20.77;18.15;;;12.00;99.90;;;;;;4975302;28;20043;-75
2022/03/16 12:59:25;;;;;;;22.83;17.92;;;12.00;99.90;;;;;;4954114;28;20051;-76
2022/03/16 13:01:52;;;;;;;22.77;18.52;;;12.00;99.90;;;;;;4938051;29;20070;-76
2022/03/16 13:04:21;;;;;;;26.70;17.95;;;12.00;99.90;;;;;;4955061;29;20447;-75